Portada
METAR-TAF:

METAR-TAF

Aeroports :

Meixad, Iran

latitud: 36-16N, longitud: 059-38E, altitud: 989 m

Observació

L'informe es va fer fa 29 minuts, a les 15:30 UTC
Vent 8 kt del Sud/Sud-Est
Temperatura 19°C
Humitat 16%
Pressió 1017 hPa
Visibilitat 10 km o més
sense núvols per sota de 1500 mi sense presència de cumulonimbus.

METAR: OIMM 261530Z 16008KT CAVOK 19/M07 Q1016 A3002

Hora: 19:29 (15:59 UTC)

Pronòstic

L'informe es va fer fa 4 hores i 59 minuts, a les 11:00 UTC
Pronòstic vàlid del 26 a les 12 UTC al 27 a les 18 UTC
Vent 6 kt del Est
Visibilitat 10 km o més
sense núvols per sota de 1500 mi sense presència de cumulonimbus.
Temporalment
l' 26 a les 12 UTC al 26 a les 15 UTC
Vent 16 kt del Est/Sud-Est
Temporalment
l' 27 a les 09 UTC al 27 a les 15 UTC
Vent 10 kt del Est/Sud-Est amb ràfegues de 20 kt
Escasses núvols a una alçada de 3500 ft
Cel ennuvolat a una alçada de 10000 ft

TAF: OIMM 261100Z 2612/2718 10006KT CAVOK TEMPO 2612/2615 12016KT TEMPO 2709/2715 12010G20KT FEW035 BKN100

Observacions i pronòstics meteorològics de més de 4000 aeroports (METAR i TAF).

Les estacions disponibles són els punts grocs i vermells al mapa.

Posi el ratolí al punt desitjat per veure el nom de l'estació.

Feu clic per veure les observacions i els pronòstics meteorològics.

Per canviar el mapa: feu clic els botons verds amb una creu de color negre per apropar; al botó verd amb un guió per allunyar la imatge; o en les fletxes verdes per a mapes adjacents.


METAR-TAF: